aviador You're here:

LFRO Decoded Metar

LANNION in FRANCE
Report Time2017-08-18 14:00:00
UTC Time2017-08-18 14:21:51
Flight Rules mvfr MVFR
Wind260° at 21 kt
W.Decomp.*RWY 29: 18.5 kt HW 9.9 kt LCW
W.Rank260° ranks 1
Current wind is above 260° avg. (11.6)
Visibility9999 m
Phenomena:N/A
Clouds:Broken 022 Hf
Broken 028 Hf
Expected CloudBase > 2,400 ft AGL from Temp-Dew spread
Ceiling2,200 ft
Temp18°C (ISA +4)
Dew Point12°C (68% RH)
AAT11.1°C
QNH1018 hPa
Density Alt732 ft
Elevation292 ft
Report Wrong Elevation
Raw Report
LFRO 181400Z AUTO 26021KT 9999 BKN022 BKN028 18/12 Q1018 BECMG
26015G30KT=

Extra information for LFRO:More info

Metar Taf Metar & Taf Last 4 Metars F.Rules Stats Wind Profile Meteogram Temp Stats Airport Information Weather charts Add Link Nearby VenuesMetar ALERT Operation Metar Decoded Social comments